sensor_id;sensor_type;location;lat;lon;timestamp;pressure;altitude;pressure_sealevel;temperature;humidity
58668;BME280;59852;43.086;25.634;2022-07-29T00:01:48;98878.00;;;21.06;76.12
58668;BME280;59852;43.086;25.634;2022-07-29T00:04:13;98868.69;;;21.02;76.10
58668;BME280;59852;43.086;25.634;2022-07-29T00:06:38;98877.78;;;21.15;75.84
58668;BME280;59852;43.086;25.634;2022-07-29T00:09:04;98883.75;;;21.17;75.09
58668;BME280;59852;43.086;25.634;2022-07-29T00:11:29;98876.69;;;20.94;75.54
58668;BME280;59852;43.086;25.634;2022-07-29T00:13:55;98884.03;;;20.91;76.07
58668;BME280;59852;43.086;25.634;2022-07-29T00:16:20;98883.00;;;21.01;75.27
58668;BME280;59852;43.086;25.634;2022-07-29T00:18:45;98883.66;;;21.42;73.59
58668;BME280;59852;43.086;25.634;2022-07-29T00:21:11;98888.75;;;21.12;74.59
58668;BME280;59852;43.086;25.634;2022-07-29T00:23:36;98891.38;;;21.29;74.73
58668;BME280;59852;43.086;25.634;2022-07-29T00:26:01;98888.81;;;21.04;75.01
58668;BME280;59852;43.086;25.634;2022-07-29T00:28:27;98896.72;;;20.73;75.61
58668;BME280;59852;43.086;25.634;2022-07-29T00:30:52;98892.91;;;20.76;75.31
58668;BME280;59852;43.086;25.634;2022-07-29T00:33:17;98898.16;;;20.84;75.75
58668;BME280;59852;43.086;25.634;2022-07-29T00:35:43;98885.69;;;20.92;75.28
58668;BME280;59852;43.086;25.634;2022-07-29T00:38:08;98892.63;;;21.02;75.28
58668;BME280;59852;43.086;25.634;2022-07-29T00:40:33;98886.28;;;21.11;75.18
58668;BME280;59852;43.086;25.634;2022-07-29T00:42:59;98892.22;;;20.74;76.21
58668;BME280;59852;43.086;25.634;2022-07-29T00:45:24;98886.44;;;20.54;76.47
58668;BME280;59852;43.086;25.634;2022-07-29T00:47:50;98887.47;;;20.53;76.38
58668;BME280;59852;43.086;25.634;2022-07-29T00:50:15;98884.81;;;20.45;76.77
58668;BME280;59852;43.086;25.634;2022-07-29T00:52:41;98882.34;;;20.27;77.07
58668;BME280;59852;43.086;25.634;2022-07-29T00:55:11;98878.97;;;20.41;76.69
58668;BME280;59852;43.086;25.634;2022-07-29T00:57:36;98874.31;;;20.68;75.46
58668;BME280;59852;43.086;25.634;2022-07-29T01:00:05;98876.31;;;20.41;75.74
58668;BME280;59852;43.086;25.634;2022-07-29T01:02:31;98868.72;;;20.30;75.61
58668;BME280;59852;43.086;25.634;2022-07-29T01:04:57;98873.53;;;20.26;76.65
58668;BME280;59852;43.086;25.634;2022-07-29T01:07:23;98865.41;;;20.28;76.66
58668;BME280;59852;43.086;25.634;2022-07-29T01:09:49;98872.03;;;20.32;76.58
58668;BME280;59852;43.086;25.634;2022-07-29T01:12:18;98872.38;;;20.21;77.20
58668;BME280;59852;43.086;25.634;2022-07-29T01:14:46;98868.53;;;20.23;76.53
58668;BME280;59852;43.086;25.634;2022-07-29T01:29:59;98860.06;;;20.44;75.76
58668;BME280;59852;43.086;25.634;2022-07-29T01:32:27;98866.22;;;20.37;76.23
58668;BME280;59852;43.086;25.634;2022-07-29T01:39:57;98850.38;;;20.76;74.80
58668;BME280;59852;43.086;25.634;2022-07-29T01:47:20;98856.91;;;20.41;75.49
58668;BME280;59852;43.086;25.634;2022-07-29T01:49:47;98857.75;;;20.49;74.94
58668;BME280;59852;43.086;25.634;2022-07-29T01:52:26;98851.91;;;20.54;75.16
58668;BME280;59852;43.086;25.634;2022-07-29T01:54:57;98866.53;;;20.50;75.53
58668;BME280;59852;43.086;25.634;2022-07-29T01:57:27;98865.69;;;20.57;75.08
58668;BME280;59852;43.086;25.634;2022-07-29T01:59:54;98861.75;;;20.45;74.98
58668;BME280;59852;43.086;25.634;2022-07-29T02:02:21;98858.09;;;20.46;75.14
58668;BME280;59852;43.086;25.634;2022-07-29T02:04:47;98856.63;;;20.83;73.93
58668;BME280;59852;43.086;25.634;2022-07-29T02:07:15;98859.00;;;20.70;73.65
58668;BME280;59852;43.086;25.634;2022-07-29T02:09:41;98857.06;;;20.39;75.42
58668;BME280;59852;43.086;25.634;2022-07-29T02:12:09;98863.91;;;20.17;76.29
58668;BME280;59852;43.086;25.634;2022-07-29T02:14:37;98862.59;;;19.81;77.81
58668;BME280;59852;43.086;25.634;2022-07-29T02:17:03;98863.06;;;20.25;76.55
58668;BME280;59852;43.086;25.634;2022-07-29T02:19:29;98861.75;;;20.13;76.17
58668;BME280;59852;43.086;25.634;2022-07-29T02:21:57;98866.06;;;20.46;74.94
58668;BME280;59852;43.086;25.634;2022-07-29T02:24:23;98865.09;;;20.07;76.30
58668;BME280;59852;43.086;25.634;2022-07-29T02:26:49;98863.75;;;20.11;76.40
58668;BME280;59852;43.086;25.634;2022-07-29T02:29:16;98858.91;;;20.14;75.87
58668;BME280;59852;43.086;25.634;2022-07-29T02:31:43;98864.44;;;19.96;75.92
58668;BME280;59852;43.086;25.634;2022-07-29T02:34:11;98860.75;;;20.14;75.67
58668;BME280;59852;43.086;25.634;2022-07-29T02:36:37;98863.56;;;20.37;75.04
58668;BME280;59852;43.086;25.634;2022-07-29T02:39:04;98862.41;;;20.15;75.63
58668;BME280;59852;43.086;25.634;2022-07-29T02:41:30;98857.44;;;20.03;76.24
58668;BME280;59852;43.086;25.634;2022-07-29T02:44:01;98863.25;;;19.83;76.35
58668;BME280;59852;43.086;25.634;2022-07-29T02:46:32;98860.09;;;19.87;76.19
58668;BME280;59852;43.086;25.634;2022-07-29T02:49:01;98866.56;;;19.93;76.18
58668;BME280;59852;43.086;25.634;2022-07-29T02:51:32;98868.56;;;19.99;75.68
58668;BME280;59852;43.086;25.634;2022-07-29T02:53:58;98862.25;;;20.08;74.44
58668;BME280;59852;43.086;25.634;2022-07-29T02:56:27;98866.22;;;20.04;74.10
58668;BME280;59852;43.086;25.634;2022-07-29T02:58:54;98868.72;;;19.81;74.54
58668;BME280;59852;43.086;25.634;2022-07-29T03:01:21;98873.06;;;20.07;73.33
58668;BME280;59852;43.086;25.634;2022-07-29T03:03:47;98868.06;;;20.20;73.38
58668;BME280;59852;43.086;25.634;2022-07-29T03:06:13;98869.88;;;20.11;72.77
58668;BME280;59852;43.086;25.634;2022-07-29T03:08:40;98870.19;;;19.59;73.55
58668;BME280;59852;43.086;25.634;2022-07-29T03:11:07;98870.84;;;19.61;74.28
58668;BME280;59852;43.086;25.634;2022-07-29T03:13:33;98877.69;;;20.04;73.61
58668;BME280;59852;43.086;25.634;2022-07-29T03:15:59;98877.53;;;20.06;73.10
58668;BME280;59852;43.086;25.634;2022-07-29T03:18:25;98875.53;;;19.92;73.86
58668;BME280;59852;43.086;25.634;2022-07-29T03:20:51;98871.38;;;19.89;75.01
58668;BME280;59852;43.086;25.634;2022-07-29T03:23:20;98877.00;;;20.02;74.90
58668;BME280;59852;43.086;25.634;2022-07-29T03:25:46;98889.63;;;20.33;73.60
58668;BME280;59852;43.086;25.634;2022-07-29T03:28:11;98888.47;;;19.95;74.87
58668;BME280;59852;43.086;25.634;2022-07-29T03:30:37;98892.09;;;19.61;75.69
58668;BME280;59852;43.086;25.634;2022-07-29T03:33:02;98891.19;;;19.53;75.11
58668;BME280;59852;43.086;25.634;2022-07-29T03:35:27;98895.75;;;19.68;75.66
58668;BME280;59852;43.086;25.634;2022-07-29T03:37:53;98901.59;;;19.96;74.30
58668;BME280;59852;43.086;25.634;2022-07-29T03:40:27;98901.06;;;19.68;74.35
58668;BME280;59852;43.086;25.634;2022-07-29T03:42:56;98900.31;;;19.50;75.17
58668;BME280;59852;43.086;25.634;2022-07-29T03:45:21;98899.09;;;19.87;74.31
58668;BME280;59852;43.086;25.634;2022-07-29T03:47:52;98905.56;;;20.00;75.05
58668;BME280;59852;43.086;25.634;2022-07-29T03:50:18;98908.38;;;19.91;75.46
58668;BME280;59852;43.086;25.634;2022-07-29T03:52:45;98913.53;;;20.00;75.84
58668;BME280;59852;43.086;25.634;2022-07-29T03:55:10;98916.53;;;19.97;76.40
58668;BME280;59852;43.086;25.634;2022-07-29T03:57:36;98917.84;;;20.01;75.76
58668;BME280;59852;43.086;25.634;2022-07-29T04:00:03;98916.84;;;20.02;74.37
58668;BME280;59852;43.086;25.634;2022-07-29T04:02:29;98921.31;;;20.02;75.63
58668;BME280;59852;43.086;25.634;2022-07-29T04:04:55;98927.13;;;20.14;75.01
58668;BME280;59852;43.086;25.634;2022-07-29T04:07:21;98930.97;;;20.60;72.78
58668;BME280;59852;43.086;25.634;2022-07-29T04:09:46;98932.44;;;20.79;72.22
58668;BME280;59852;43.086;25.634;2022-07-29T04:12:11;98933.22;;;20.96;71.95
58668;BME280;59852;43.086;25.634;2022-07-29T04:14:37;98925.44;;;20.78;72.10
58668;BME280;59852;43.086;25.634;2022-07-29T04:17:03;98925.03;;;21.05;70.69
58668;BME280;59852;43.086;25.634;2022-07-29T04:19:28;98926.25;;;20.95;70.73
58668;BME280;59852;43.086;25.634;2022-07-29T04:21:53;98924.63;;;21.25;69.55
58668;BME280;59852;43.086;25.634;2022-07-29T04:24:19;98929.63;;;21.19;69.64
58668;BME280;59852;43.086;25.634;2022-07-29T04:26:45;98929.81;;;21.26;69.18
58668;BME280;59852;43.086;25.634;2022-07-29T04:29:10;98928.81;;;21.19;68.47
58668;BME280;59852;43.086;25.634;2022-07-29T04:31:37;98926.56;;;21.47;67.74
58668;BME280;59852;43.086;25.634;2022-07-29T04:34:02;98926.94;;;21.36;68.75
58668;BME280;59852;43.086;25.634;2022-07-29T04:36:27;98930.44;;;21.36;69.13
58668;BME280;59852;43.086;25.634;2022-07-29T04:38:53;98929.78;;;21.65;67.71
58668;BME280;59852;43.086;25.634;2022-07-29T04:41:18;98931.00;;;21.55;68.03
58668;BME280;59852;43.086;25.634;2022-07-29T04:43:43;98936.94;;;21.34;68.94
58668;BME280;59852;43.086;25.634;2022-07-29T04:46:09;98931.16;;;21.14;69.83
58668;BME280;59852;43.086;25.634;2022-07-29T04:48:34;98938.09;;;20.59;71.91
58668;BME280;59852;43.086;25.634;2022-07-29T04:50:59;98940.81;;;21.54;69.52
58668;BME280;59852;43.086;25.634;2022-07-29T04:53:25;98932.25;;;21.67;69.25
58668;BME280;59852;43.086;25.634;2022-07-29T04:55:50;98943.09;;;21.65;69.49
58668;BME280;59852;43.086;25.634;2022-07-29T04:58:15;98927.78;;;21.36;70.19
58668;BME280;59852;43.086;25.634;2022-07-29T05:00:41;98928.84;;;21.81;69.46
58668;BME280;59852;43.086;25.634;2022-07-29T05:03:06;98927.91;;;21.97;68.17
58668;BME280;59852;43.086;25.634;2022-07-29T05:05:32;98928.56;;;21.99;69.07
58668;BME280;59852;43.086;25.634;2022-07-29T05:07:57;98935.22;;;21.72;68.38
58668;BME280;59852;43.086;25.634;2022-07-29T05:10:22;98935.34;;;21.79;68.98
58668;BME280;59852;43.086;25.634;2022-07-29T05:12:48;98941.47;;;22.10;68.56
58668;BME280;59852;43.086;25.634;2022-07-29T05:15:13;98941.28;;;22.12;67.95
58668;BME280;59852;43.086;25.634;2022-07-29T05:17:39;98950.31;;;22.11;67.59
58668;BME280;59852;43.086;25.634;2022-07-29T05:20:05;98955.63;;;22.11;68.53
58668;BME280;59852;43.086;25.634;2022-07-29T05:22:30;98952.97;;;22.11;67.46
58668;BME280;59852;43.086;25.634;2022-07-29T05:24:55;98950.41;;;21.94;68.17
58668;BME280;59852;43.086;25.634;2022-07-29T05:27:21;98954.69;;;22.26;67.11
58668;BME280;59852;43.086;25.634;2022-07-29T05:29:46;98958.06;;;21.19;69.93
58668;BME280;59852;43.086;25.634;2022-07-29T05:32:12;98951.00;;;22.04;67.87
58668;BME280;59852;43.086;25.634;2022-07-29T05:34:37;98955.22;;;21.68;68.30
58668;BME280;59852;43.086;25.634;2022-07-29T05:37:03;98958.56;;;21.93;67.44
58668;BME280;59852;43.086;25.634;2022-07-29T05:39:28;98956.22;;;22.21;67.05
58668;BME280;59852;43.086;25.634;2022-07-29T05:41:53;98958.06;;;22.43;66.82
58668;BME280;59852;43.086;25.634;2022-07-29T05:44:19;98952.97;;;22.11;66.79
58668;BME280;59852;43.086;25.634;2022-07-29T05:46:44;98961.47;;;22.52;65.68
58668;BME280;59852;43.086;25.634;2022-07-29T05:49:09;98962.84;;;22.85;64.46
58668;BME280;59852;43.086;25.634;2022-07-29T05:51:35;98954.25;;;22.75;64.35
58668;BME280;59852;43.086;25.634;2022-07-29T05:54:01;98950.78;;;22.89;63.91
58668;BME280;59852;43.086;25.634;2022-07-29T05:56:26;98962.06;;;22.62;64.59
58668;BME280;59852;43.086;25.634;2022-07-29T05:58:52;98953.00;;;22.86;64.14
58668;BME280;59852;43.086;25.634;2022-07-29T06:01:17;98959.97;;;22.72;63.71
58668;BME280;59852;43.086;25.634;2022-07-29T06:03:43;98958.44;;;23.07;62.89
58668;BME280;59852;43.086;25.634;2022-07-29T06:06:08;98958.34;;;23.15;62.56
58668;BME280;59852;43.086;25.634;2022-07-29T06:08:34;98959.81;;;23.18;61.00
58668;BME280;59852;43.086;25.634;2022-07-29T06:11:00;98968.56;;;23.27;59.87
58668;BME280;59852;43.086;25.634;2022-07-29T06:13:25;98969.56;;;23.26;58.91
58668;BME280;59852;43.086;25.634;2022-07-29T06:15:51;98957.06;;;23.41;59.35
58668;BME280;59852;43.086;25.634;2022-07-29T06:18:16;98959.63;;;23.34;59.48
58668;BME280;59852;43.086;25.634;2022-07-29T06:20:42;98950.31;;;23.45;59.61
58668;BME280;59852;43.086;25.634;2022-07-29T06:23:07;98959.13;;;23.75;58.67
58668;BME280;59852;43.086;25.634;2022-07-29T06:25:33;98949.16;;;23.84;58.14
58668;BME280;59852;43.086;25.634;2022-07-29T06:28:00;98954.06;;;23.80;57.83
58668;BME280;59852;43.086;25.634;2022-07-29T06:30:25;98947.19;;;23.92;57.19
58668;BME280;59852;43.086;25.634;2022-07-29T06:32:51;98947.22;;;23.99;57.80
58668;BME280;59852;43.086;25.634;2022-07-29T06:35:16;98944.75;;;23.97;57.31
58668;BME280;59852;43.086;25.634;2022-07-29T06:37:42;98948.34;;;24.04;56.45
58668;BME280;59852;43.086;25.634;2022-07-29T06:40:07;98954.56;;;24.12;56.35
58668;BME280;59852;43.086;25.634;2022-07-29T06:42:51;98953.66;;;24.26;55.98
58668;BME280;59852;43.086;25.634;2022-07-29T06:45:16;98952.97;;;24.17;55.21
58668;BME280;59852;43.086;25.634;2022-07-29T06:47:41;98951.13;;;24.18;55.14
58668;BME280;59852;43.086;25.634;2022-07-29T06:50:07;98944.94;;;23.96;55.21
58668;BME280;59852;43.086;25.634;2022-07-29T06:52:36;98942.97;;;24.47;54.01
58668;BME280;59852;43.086;25.634;2022-07-29T06:55:01;98947.34;;;24.48;53.05
58668;BME280;59852;43.086;25.634;2022-07-29T06:57:27;98941.59;;;24.51;53.63
58668;BME280;59852;43.086;25.634;2022-07-29T06:59:52;98942.22;;;24.81;51.95
58668;BME280;59852;43.086;25.634;2022-07-29T07:02:18;98941.25;;;24.89;51.99
58668;BME280;59852;43.086;25.634;2022-07-29T07:04:43;98939.13;;;24.78;51.39
58668;BME280;59852;43.086;25.634;2022-07-29T07:07:08;98938.59;;;24.96;51.65
58668;BME280;59852;43.086;25.634;2022-07-29T07:09:34;98943.66;;;25.12;50.37
58668;BME280;59852;43.086;25.634;2022-07-29T07:11:59;98935.72;;;25.32;50.43
58668;BME280;59852;43.086;25.634;2022-07-29T07:14:24;98942.56;;;25.41;49.80
58668;BME280;59852;43.086;25.634;2022-07-29T07:16:51;98935.19;;;25.56;49.87
58668;BME280;59852;43.086;25.634;2022-07-29T07:19:17;98930.31;;;25.66;49.03
58668;BME280;59852;43.086;25.634;2022-07-29T07:21:44;98934.06;;;25.85;48.55
58668;BME280;59852;43.086;25.634;2022-07-29T07:24:09;98940.69;;;25.83;48.95
58668;BME280;59852;43.086;25.634;2022-07-29T07:26:34;98932.44;;;25.91;48.21
58668;BME280;59852;43.086;25.634;2022-07-29T07:29:00;98938.66;;;25.98;47.17
58668;BME280;59852;43.086;25.634;2022-07-29T07:31:25;98934.97;;;26.06;48.47
58668;BME280;59852;43.086;25.634;2022-07-29T07:33:50;98929.16;;;25.89;47.21
58668;BME280;59852;43.086;25.634;2022-07-29T07:36:17;98931.88;;;26.09;46.15
58668;BME280;59852;43.086;25.634;2022-07-29T07:38:42;98927.16;;;26.44;44.93
58668;BME280;59852;43.086;25.634;2022-07-29T07:41:07;98925.72;;;26.48;44.78
58668;BME280;59852;43.086;25.634;2022-07-29T07:43:33;98926.56;;;26.55;43.32
58668;BME280;59852;43.086;25.634;2022-07-29T07:45:58;98923.47;;;26.65;43.08
58668;BME280;59852;43.086;25.634;2022-07-29T07:48:24;98932.91;;;26.80;42.61
58668;BME280;59852;43.086;25.634;2022-07-29T07:50:49;98937.06;;;26.70;44.53
58668;BME280;59852;43.086;25.634;2022-07-29T07:53:15;98927.50;;;26.94;43.79
58668;BME280;59852;43.086;25.634;2022-07-29T07:55:41;98924.22;;;26.98;45.62
58668;BME280;59852;43.086;25.634;2022-07-29T07:58:07;98923.19;;;26.93;45.10
58668;BME280;59852;43.086;25.634;2022-07-29T08:00:32;98920.88;;;27.16;44.58
58668;BME280;59852;43.086;25.634;2022-07-29T08:02:57;98920.44;;;27.26;45.09
58668;BME280;59852;43.086;25.634;2022-07-29T08:05:23;98911.34;;;27.27;45.11
58668;BME280;59852;43.086;25.634;2022-07-29T08:07:48;98910.53;;;27.20;44.50
58668;BME280;59852;43.086;25.634;2022-07-29T08:10:14;98908.50;;;27.60;44.18
58668;BME280;59852;43.086;25.634;2022-07-29T08:13:01;98909.63;;;27.46;43.05
58668;BME280;59852;43.086;25.634;2022-07-29T08:15:27;98907.69;;;27.66;42.68
58668;BME280;59852;43.086;25.634;2022-07-29T08:17:52;98912.63;;;27.69;42.12
58668;BME280;59852;43.086;25.634;2022-07-29T08:20:17;98902.44;;;27.78;41.46
58668;BME280;59852;43.086;25.634;2022-07-29T08:22:43;98909.47;;;27.79;41.94
58668;BME280;59852;43.086;25.634;2022-07-29T08:25:08;98903.34;;;27.96;40.56
58668;BME280;59852;43.086;25.634;2022-07-29T08:27:33;98892.84;;;27.88;41.42
58668;BME280;59852;43.086;25.634;2022-07-29T08:29:59;98899.84;;;27.96;39.21
58668;BME280;59852;43.086;25.634;2022-07-29T08:32:24;98892.06;;;28.13;39.92
58668;BME280;59852;43.086;25.634;2022-07-29T08:34:49;98899.19;;;28.25;40.73
58668;BME280;59852;43.086;25.634;2022-07-29T08:37:15;98888.13;;;28.40;39.33
58668;BME280;59852;43.086;25.634;2022-07-29T08:39:40;98892.94;;;28.56;39.37
58668;BME280;59852;43.086;25.634;2022-07-29T08:42:06;98888.44;;;28.50;40.01
58668;BME280;59852;43.086;25.634;2022-07-29T08:44:31;98889.16;;;28.64;39.70
58668;BME280;59852;43.086;25.634;2022-07-29T08:46:57;98882.75;;;28.83;39.54
58668;BME280;59852;43.086;25.634;2022-07-29T08:49:23;98890.22;;;28.81;39.38
58668;BME280;59852;43.086;25.634;2022-07-29T08:51:48;98883.03;;;28.75;38.77
58668;BME280;59852;43.086;25.634;2022-07-29T08:54:16;98880.41;;;28.69;38.64
58668;BME280;59852;43.086;25.634;2022-07-29T08:56:42;98875.97;;;28.56;38.74
58668;BME280;59852;43.086;25.634;2022-07-29T08:59:07;98873.84;;;28.83;38.30
58668;BME280;59852;43.086;25.634;2022-07-29T09:01:33;98880.63;;;28.92;38.76
58668;BME280;59852;43.086;25.634;2022-07-29T09:04:03;98887.03;;;29.09;38.13
58668;BME280;59852;43.086;25.634;2022-07-29T09:06:29;98876.47;;;29.08;37.34
58668;BME280;59852;43.086;25.634;2022-07-29T09:08:57;98863.47;;;29.05;37.51
58668;BME280;59852;43.086;25.634;2022-07-29T09:11:23;98867.88;;;29.18;37.20
58668;BME280;59852;43.086;25.634;2022-07-29T09:13:49;98860.66;;;29.30;35.17
58668;BME280;59852;43.086;25.634;2022-07-29T09:16:14;98866.34;;;29.40;35.14
58668;BME280;59852;43.086;25.634;2022-07-29T09:18:40;98866.94;;;29.60;37.52
58668;BME280;59852;43.086;25.634;2022-07-29T09:21:07;98866.81;;;29.67;35.98
58668;BME280;59852;43.086;25.634;2022-07-29T09:24:01;98864.28;;;29.84;33.80
58668;BME280;59852;43.086;25.634;2022-07-29T09:26:30;98873.97;;;29.61;35.23
58668;BME280;59852;43.086;25.634;2022-07-29T09:28:56;98869.91;;;29.70;35.42
58668;BME280;59852;43.086;25.634;2022-07-29T09:31:32;98866.59;;;29.68;36.68
58668;BME280;59852;43.086;25.634;2022-07-29T09:33:58;98863.53;;;29.65;35.92
58668;BME280;59852;43.086;25.634;2022-07-29T09:36:25;98863.53;;;29.65;34.99
58668;BME280;59852;43.086;25.634;2022-07-29T09:38:57;98858.03;;;29.60;38.19
58668;BME280;59852;43.086;25.634;2022-07-29T09:41:23;98857.56;;;29.63;35.66
58668;BME280;59852;43.086;25.634;2022-07-29T09:43:58;98852.41;;;29.61;33.57
58668;BME280;59852;43.086;25.634;2022-07-29T09:46:26;98843.38;;;29.67;33.42
58668;BME280;59852;43.086;25.634;2022-07-29T09:49:24;98848.22;;;29.77;34.14
58668;BME280;59852;43.086;25.634;2022-07-29T09:51:43;98844.28;;;29.91;33.07
58668;BME280;59852;43.086;25.634;2022-07-29T09:54:26;98835.88;;;30.11;32.82
58668;BME280;59852;43.086;25.634;2022-07-29T09:56:53;98845.97;;;30.27;34.06
58668;BME280;59852;43.086;25.634;2022-07-29T09:59:18;98838.44;;;30.18;33.40
58668;BME280;59852;43.086;25.634;2022-07-29T10:01:47;98838.44;;;30.18;32.01
58668;BME280;59852;43.086;25.634;2022-07-29T10:04:14;98844.22;;;30.10;33.60
58668;BME280;59852;43.086;25.634;2022-07-29T10:06:58;98845.63;;;30.24;33.50
58668;BME280;59852;43.086;25.634;2022-07-29T10:09:24;98841.53;;;30.10;33.49
58668;BME280;59852;43.086;25.634;2022-07-29T10:12:06;98845.03;;;30.10;32.87
58668;BME280;59852;43.086;25.634;2022-07-29T10:14:31;98844.81;;;30.23;33.38
58668;BME280;59852;43.086;25.634;2022-07-29T10:16:59;98843.75;;;30.36;33.23
58668;BME280;59852;43.086;25.634;2022-07-29T10:19:25;98846.34;;;30.31;33.81
58668;BME280;59852;43.086;25.634;2022-07-29T10:21:50;98827.56;;;30.24;33.52
58668;BME280;59852;43.086;25.634;2022-07-29T10:24:16;98832.47;;;30.51;32.73
58668;BME280;59852;43.086;25.634;2022-07-29T10:26:41;98828.25;;;30.43;33.62
58668;BME280;59852;43.086;25.634;2022-07-29T10:29:07;98816.06;;;30.41;34.28
58668;BME280;59852;43.086;25.634;2022-07-29T10:31:55;98822.16;;;30.60;33.53
58668;BME280;59852;43.086;25.634;2022-07-29T10:34:29;98826.00;;;30.64;32.96
58668;BME280;59852;43.086;25.634;2022-07-29T10:37:02;98822.41;;;30.58;33.91
58668;BME280;59852;43.086;25.634;2022-07-29T10:42:22;98802.06;;;30.55;34.69
58668;BME280;59852;43.086;25.634;2022-07-29T10:44:49;98798.66;;;30.83;34.08
58668;BME280;59852;43.086;25.634;2022-07-29T10:47:22;98789.94;;;30.93;34.22
58668;BME280;59852;43.086;25.634;2022-07-29T10:52:22;98781.66;;;30.71;32.28
58668;BME280;59852;43.086;25.634;2022-07-29T10:54:49;98790.16;;;30.92;33.39
58668;BME280;59852;43.086;25.634;2022-07-29T10:57:19;98781.19;;;31.03;33.35
58668;BME280;59852;43.086;25.634;2022-07-29T10:59:51;98785.25;;;31.29;33.17
58668;BME280;59852;43.086;25.634;2022-07-29T11:05:10;98777.06;;;31.40;32.72
58668;BME280;59852;43.086;25.634;2022-07-29T11:07:37;98775.19;;;31.41;32.46
58668;BME280;59852;43.086;25.634;2022-07-29T11:15:06;98766.47;;;31.67;32.97
58668;BME280;59852;43.086;25.634;2022-07-29T11:20:36;98773.13;;;31.31;33.16
58668;BME280;59852;43.086;25.634;2022-07-29T11:34:19;98737.25;;;31.53;32.43
58668;BME280;59852;43.086;25.634;2022-07-29T11:39:28;98756.16;;;31.81;32.41
58668;BME280;59852;43.086;25.634;2022-07-29T11:42:24;98762.03;;;31.04;34.20
58668;BME280;59852;43.086;25.634;2022-07-29T11:47:22;98749.06;;;31.63;33.24
58668;BME280;59852;43.086;25.634;2022-07-29T11:49:53;98746.44;;;31.52;32.81
58668;BME280;59852;43.086;25.634;2022-07-29T11:52:21;98745.94;;;31.55;33.80
58668;BME280;59852;43.086;25.634;2022-07-29T11:54:49;98741.13;;;31.74;33.18
58668;BME280;59852;43.086;25.634;2022-07-29T11:57:19;98743.00;;;31.73;33.58
58668;BME280;59852;43.086;25.634;2022-07-29T11:59:48;98734.22;;;31.66;33.05
58668;BME280;59852;43.086;25.634;2022-07-29T12:02:14;98736.53;;;31.74;32.92
58668;BME280;59852;43.086;25.634;2022-07-29T12:04:51;98739.34;;;31.79;32.64
58668;BME280;59852;43.086;25.634;2022-07-29T12:07:17;98734.63;;;31.75;33.60
58668;BME280;59852;43.086;25.634;2022-07-29T12:09:50;98741.81;;;31.81;33.05
58668;BME280;59852;43.086;25.634;2022-07-29T12:12:17;98737.28;;;31.69;33.52
58668;BME280;59852;43.086;25.634;2022-07-29T12:14:43;98736.13;;;31.65;32.65
58668;BME280;59852;43.086;25.634;2022-07-29T12:17:29;98716.97;;;31.67;33.25
58668;BME280;59852;43.086;25.634;2022-07-29T12:19:57;98718.13;;;31.88;33.27
58668;BME280;59852;43.086;25.634;2022-07-29T12:22:30;98721.56;;;31.83;32.18
58668;BME280;59852;43.086;25.634;2022-07-29T12:25:00;98721.13;;;31.91;32.20
58668;BME280;59852;43.086;25.634;2022-07-29T12:27:28;98712.59;;;32.00;33.42
58668;BME280;59852;43.086;25.634;2022-07-29T12:29:56;98705.88;;;31.85;31.69
58668;BME280;59852;43.086;25.634;2022-07-29T12:32:30;98714.19;;;31.79;32.33
58668;BME280;59852;43.086;25.634;2022-07-29T12:34:57;98704.84;;;31.86;31.96
58668;BME280;59852;43.086;25.634;2022-07-29T12:37:24;98697.34;;;31.93;33.22
58668;BME280;59852;43.086;25.634;2022-07-29T12:39:52;98702.38;;;32.23;32.15
58668;BME280;59852;43.086;25.634;2022-07-29T12:42:19;98705.97;;;32.07;32.43
58668;BME280;59852;43.086;25.634;2022-07-29T12:44:49;98693.84;;;31.93;32.81
58668;BME280;59852;43.086;25.634;2022-07-29T12:47:16;98692.69;;;31.72;32.32
58668;BME280;59852;43.086;25.634;2022-07-29T12:49:45;98691.03;;;32.05;32.82
58668;BME280;59852;43.086;25.634;2022-07-29T12:52:31;98675.81;;;32.20;33.08
58668;BME280;59852;43.086;25.634;2022-07-29T12:54:58;98691.81;;;32.22;32.51
58668;BME280;59852;43.086;25.634;2022-07-29T12:57:24;98695.94;;;32.08;32.35
58668;BME280;59852;43.086;25.634;2022-07-29T13:00:08;98684.22;;;32.02;32.74
58668;BME280;59852;43.086;25.634;2022-07-29T13:02:39;98682.97;;;32.10;31.19
58668;BME280;59852;43.086;25.634;2022-07-29T13:05:07;98682.03;;;31.65;32.93
58668;BME280;59852;43.086;25.634;2022-07-29T13:07:38;98674.31;;;31.74;33.38
58668;BME280;59852;43.086;25.634;2022-07-29T13:10:12;98668.56;;;32.04;32.02
58668;BME280;59852;43.086;25.634;2022-07-29T13:13:02;98672.53;;;31.96;35.83
58668;BME280;59852;43.086;25.634;2022-07-29T13:15:28;98664.34;;;31.91;32.06
58668;BME280;59852;43.086;25.634;2022-07-29T13:17:55;98662.81;;;31.79;34.67
58668;BME280;59852;43.086;25.634;2022-07-29T13:20:23;98658.94;;;31.91;32.88
58668;BME280;59852;43.086;25.634;2022-07-29T13:22:49;98664.41;;;31.96;32.61
58668;BME280;59852;43.086;25.634;2022-07-29T13:25:15;98658.59;;;31.71;33.08
58668;BME280;59852;43.086;25.634;2022-07-29T13:27:48;98653.06;;;31.27;33.65
58668;BME280;59852;43.086;25.634;2022-07-29T13:30:13;98647.41;;;31.79;32.65
58668;BME280;59852;43.086;25.634;2022-07-29T13:32:38;98648.88;;;31.87;31.67
58668;BME280;59852;43.086;25.634;2022-07-29T13:35:05;98648.34;;;31.90;32.21
58668;BME280;59852;43.086;25.634;2022-07-29T13:37:31;98642.00;;;32.01;31.65
58668;BME280;59852;43.086;25.634;2022-07-29T13:39:59;98647.28;;;31.91;31.87
58668;BME280;59852;43.086;25.634;2022-07-29T13:42:25;98645.78;;;32.00;31.91
58668;BME280;59852;43.086;25.634;2022-07-29T13:44:51;98643.25;;;31.93;30.96
58668;BME280;59852;43.086;25.634;2022-07-29T13:47:19;98640.81;;;31.92;31.25